createdAt,value
2019-04-25T00:01:26.953Z,10.83
2019-04-25T00:03:58.551Z,10.86
2019-04-25T00:06:32.181Z,10.86
2019-04-25T00:09:06.221Z,10.85
2019-04-25T00:11:38.005Z,10.75
2019-04-25T00:14:11.315Z,10.68
2019-04-25T00:16:45.204Z,10.70
2019-04-25T00:19:17.332Z,10.70
2019-04-25T00:22:06.419Z,10.67
2019-04-25T00:24:49.469Z,10.59
2019-04-25T00:27:21.676Z,10.55
2019-04-25T00:29:55.949Z,10.53
2019-04-25T00:32:28.620Z,10.55
2019-04-25T00:35:01.929Z,10.50
2019-04-25T00:37:34.701Z,10.48
2019-04-25T00:40:07.250Z,10.43
2019-04-25T00:42:38.893Z,10.31
2019-04-25T00:45:11.899Z,10.32
2019-04-25T00:47:44.715Z,10.28
2019-04-25T00:50:16.345Z,10.33
2019-04-25T00:52:48.322Z,10.26
2019-04-25T00:55:26.865Z,10.23
2019-04-25T00:57:56.413Z,10.22
2019-04-25T01:00:36.481Z,10.20
2019-04-25T01:03:11.530Z,10.21
2019-04-25T01:05:44.354Z,10.22
2019-04-25T01:08:16.241Z,10.16
2019-04-25T01:10:48.020Z,10.15
2019-04-25T01:13:19.608Z,10.18
2019-04-25T01:15:52.878Z,10.17
2019-04-25T01:18:25.231Z,10.12
2019-04-25T01:20:56.992Z,10.12
2019-04-25T01:23:28.581Z,10.10
2019-04-25T01:26:00.448Z,10.10
2019-04-25T01:28:33.844Z,10.08
2019-04-25T01:31:06.971Z,9.99
2019-04-25T01:33:38.527Z,9.93
2019-04-25T01:36:19.033Z,9.90
2019-04-25T01:38:56.664Z,9.91
2019-04-25T01:42:03.627Z,9.89
2019-04-25T01:44:40.175Z,9.84
2019-04-25T01:47:14.107Z,9.82
2019-04-25T01:49:45.733Z,9.79
2019-04-25T01:52:17.336Z,9.72
2019-04-25T01:54:49.301Z,9.69
2019-04-25T01:57:20.933Z,9.69
2019-04-25T01:59:54.067Z,9.66
2019-04-25T02:02:27.429Z,9.67
2019-04-25T02:04:59.967Z,9.64
2019-04-25T02:07:33.321Z,9.56
2019-04-25T02:10:06.822Z,9.59
2019-04-25T02:12:46.408Z,9.62
2019-04-25T02:15:19.902Z,9.59
2019-04-25T02:17:53.486Z,9.65
2019-04-25T02:20:24.730Z,9.56
2019-04-25T02:22:56.486Z,9.46
2019-04-25T02:25:28.077Z,9.42
2019-04-25T02:28:01.484Z,9.43
2019-04-25T02:30:35.349Z,9.43
2019-04-25T02:33:08.855Z,9.45
2019-04-25T02:35:42.905Z,9.47
2019-04-25T02:38:16.548Z,9.48
2019-04-25T02:40:46.096Z,9.45
2019-04-25T02:43:17.654Z,9.44
2019-04-25T02:46:08.102Z,9.43
2019-04-25T02:49:08.821Z,9.43
2019-04-25T02:51:59.545Z,9.39
2019-04-25T02:54:31.293Z,9.38
2019-04-25T02:57:06.558Z,9.36
2019-04-25T02:59:37.056Z,9.28
2019-04-25T03:02:09.445Z,9.27
2019-04-25T03:04:41.082Z,9.23
2019-04-25T03:07:16.755Z,9.22
2019-04-25T03:09:45.922Z,9.23
2019-04-25T03:12:29.847Z,9.19
2019-04-25T03:14:50.748Z,9.15
2019-04-25T03:17:24.400Z,9.10
2019-04-25T03:20:17.238Z,9.08
2019-04-25T03:22:48.805Z,9.05
2019-04-25T03:25:20.432Z,9.04
2019-04-25T03:27:52.052Z,9.06
2019-04-25T03:30:25.525Z,9.06
2019-04-25T03:32:56.905Z,9.02
2019-04-25T03:35:28.512Z,9.01
2019-04-25T03:38:00.462Z,9.04
2019-04-25T03:40:34.041Z,9.05
2019-04-25T03:43:06.254Z,9.09
2019-04-25T03:45:38.654Z,9.10
2019-04-25T03:48:10.258Z,9.14
2019-04-25T03:50:41.928Z,9.11
2019-04-25T03:53:13.996Z,9.11
2019-04-25T03:55:46.717Z,9.14
2019-04-25T03:58:18.335Z,9.17
2019-04-25T04:00:49.878Z,9.14
2019-04-25T04:03:21.481Z,9.10
2019-04-25T04:05:54.021Z,9.13
2019-04-25T04:08:26.378Z,9.16
2019-04-25T04:10:57.945Z,9.12
2019-04-25T04:13:31.016Z,9.07
2019-04-25T04:16:03.399Z,9.03
2019-04-25T04:18:46.334Z,9.03
2019-04-25T04:21:27.561Z,9.06
2019-04-25T04:24:18.529Z,9.00
2019-04-25T04:27:09.036Z,8.98
2019-04-25T04:29:43.110Z,9.00
2019-04-25T04:32:15.985Z,8.97
2019-04-25T04:34:47.989Z,8.93
2019-04-25T04:37:19.721Z,8.91
2019-04-25T04:39:51.304Z,8.96
2019-04-25T04:42:23.727Z,8.87
2019-04-25T04:44:55.467Z,8.87
2019-04-25T04:47:27.076Z,8.87
2019-04-25T04:49:58.635Z,8.89
2019-04-25T04:52:30.202Z,8.88
2019-04-25T04:55:06.363Z,8.92
2019-04-25T04:57:36.260Z,9.13
2019-04-25T05:00:08.253Z,9.37
2019-04-25T05:03:02.252Z,9.55
2019-04-25T05:05:55.742Z,9.70
2019-04-25T05:08:30.407Z,9.87
2019-04-25T05:11:02.015Z,10.05
2019-04-25T05:13:34.256Z,10.09
2019-04-25T05:16:05.927Z,10.14
2019-04-25T05:18:40.011Z,10.19
2019-04-25T05:21:10.765Z,10.49
2019-04-25T05:23:42.341Z,10.88
2019-04-25T05:26:15.961Z,11.20
2019-04-25T05:28:47.211Z,11.57
2019-04-25T05:31:30.436Z,11.96
2019-04-25T05:34:03.701Z,12.30
2019-04-25T05:36:38.482Z,12.68
2019-04-25T05:39:11.816Z,12.96
2019-04-25T05:41:59.659Z,13.25
2019-04-25T05:44:31.229Z,13.63
2019-04-25T05:47:04.147Z,13.96
2019-04-25T05:49:35.797Z,14.15
2019-04-25T05:52:07.424Z,14.54
2019-04-25T05:54:39.012Z,14.80
2019-04-25T05:57:10.671Z,15.05
2019-04-25T05:59:43.659Z,15.33
2019-04-25T06:02:15.322Z,15.65
2019-04-25T06:04:46.955Z,15.87
2019-04-25T06:07:19.398Z,16.29
2019-04-25T06:10:10.219Z,16.43
2019-04-25T06:12:59.985Z,16.46
2019-04-25T06:15:33.305Z,16.65
2019-04-25T06:18:25.221Z,17.00
2019-04-25T06:20:57.349Z,17.31
2019-04-25T06:23:54.501Z,17.35
2019-04-25T06:26:34.061Z,17.64
2019-04-25T06:28:59.891Z,17.94
2019-04-25T06:31:32.098Z,18.22
2019-04-25T06:34:04.869Z,18.44
2019-04-25T06:36:36.441Z,18.68
2019-04-25T06:39:10.474Z,18.85
2019-04-25T06:41:42.048Z,19.02
2019-04-25T06:44:30.407Z,19.58
2019-04-25T06:47:21.212Z,20.05
2019-04-25T06:49:53.276Z,20.46
2019-04-25T06:52:29.199Z,20.80
2019-04-25T06:54:58.158Z,21.10
2019-04-25T06:57:30.484Z,21.38
2019-04-25T07:00:02.307Z,21.64
2019-04-25T07:02:35.235Z,21.87
2019-04-25T07:05:09.669Z,22.02
2019-04-25T07:07:41.339Z,22.14
2019-04-25T07:10:14.323Z,22.42
2019-04-25T07:12:46.002Z,22.59
2019-04-25T07:15:19.463Z,22.70
2019-04-25T07:17:51.232Z,22.79
2019-04-25T07:20:25.698Z,23.07
2019-04-25T07:22:56.720Z,23.21
2019-04-25T07:25:30.983Z,23.29
2019-04-25T07:28:39.909Z,23.37
2019-04-25T07:31:29.390Z,23.50
2019-04-25T07:34:09.879Z,23.35
2019-04-25T07:36:41.435Z,23.53
2019-04-25T07:39:13.541Z,23.55
2019-04-25T07:41:45.370Z,23.53
2019-04-25T07:44:17.131Z,23.65
2019-04-25T07:46:48.890Z,23.60
2019-04-25T07:49:20.451Z,23.57
2019-04-25T07:51:53.676Z,23.45
2019-04-25T07:54:26.607Z,23.38
2019-04-25T07:56:58.768Z,23.56
2019-04-25T07:59:30.981Z,23.69
2019-04-25T08:02:03.386Z,23.84
2019-04-25T08:04:36.956Z,23.94
2019-04-25T08:07:08.356Z,23.82
2019-04-25T08:09:39.971Z,23.75
2019-04-25T08:12:13.272Z,23.81
2019-04-25T08:14:56.421Z,23.99
2019-04-25T08:17:46.171Z,24.27
2019-04-25T08:20:18.358Z,24.48
2019-04-25T08:22:56.665Z,24.35
2019-04-25T08:25:24.028Z,24.48
2019-04-25T08:27:55.717Z,24.48
2019-04-25T08:30:27.317Z,24.24
2019-04-25T08:32:58.935Z,24.25
2019-04-25T08:35:30.548Z,24.26
2019-04-25T08:38:03.411Z,24.45
2019-04-25T08:40:37.306Z,24.38
2019-04-25T08:43:08.749Z,24.37
2019-04-25T08:45:41.901Z,24.30
2019-04-25T08:48:13.724Z,24.14
2019-04-25T08:51:08.576Z,24.11
2019-04-25T08:53:50.845Z,23.80
2019-04-25T08:56:27.290Z,24.16
2019-04-25T08:59:37.337Z,24.27
2019-04-25T09:02:27.716Z,24.24
2019-04-25T09:05:18.081Z,24.62
2019-04-25T09:07:49.782Z,24.79
2019-04-25T09:10:21.599Z,24.99
2019-04-25T09:12:53.745Z,24.72
2019-04-25T09:15:25.534Z,24.52
2019-04-25T09:17:57.146Z,24.56
2019-04-25T09:20:28.779Z,24.44
2019-04-25T09:23:00.357Z,24.40
2019-04-25T09:25:33.510Z,24.38
2019-04-25T09:28:05.300Z,24.63
2019-04-25T09:30:37.137Z,24.70
2019-04-25T09:33:09.768Z,24.80
2019-04-25T09:35:41.656Z,24.76
2019-04-25T09:38:13.402Z,24.62
2019-04-25T09:40:45.674Z,24.79
2019-04-25T09:43:18.551Z,24.92
2019-04-25T09:45:57.242Z,25.04
2019-04-25T09:48:47.762Z,25.12
2019-04-25T09:51:29.475Z,25.26
2019-04-25T09:54:10.174Z,25.25
2019-04-25T09:56:46.118Z,25.00
2019-04-25T09:59:28.035Z,24.71
2019-04-25T10:01:55.708Z,24.67
2019-04-25T10:04:27.615Z,24.80
2019-04-25T10:06:59.357Z,25.06
2019-04-25T10:09:30.954Z,25.00
2019-04-25T10:12:02.580Z,25.03
2019-04-25T10:15:21.850Z,25.09
2019-04-25T10:17:53.516Z,25.17
2019-04-25T10:20:25.108Z,25.23
2019-04-25T10:22:56.691Z,25.24
2019-04-25T10:25:28.548Z,25.27
2019-04-25T10:28:00.171Z,25.50
2019-04-25T10:30:31.744Z,25.77
2019-04-25T10:33:04.106Z,25.54
2019-04-25T10:35:46.699Z,25.46
2019-04-25T10:38:10.197Z,25.68
2019-04-25T10:40:42.600Z,25.80
2019-04-25T10:43:15.686Z,25.88
2019-04-25T10:45:48.720Z,25.59
2019-04-25T10:48:20.552Z,25.52
2019-04-25T10:50:53.865Z,25.65
2019-04-25T10:53:25.690Z,25.81
2019-04-25T10:55:57.567Z,25.92
2019-04-25T10:58:29.182Z,26.08
2019-04-25T11:01:00.774Z,26.06
2019-04-25T11:03:51.739Z,26.01
2019-04-25T11:06:27.428Z,26.06
2019-04-25T11:08:59.488Z,25.97
2019-04-25T11:11:31.260Z,26.04
2019-04-25T11:14:03.380Z,25.97
2019-04-25T11:16:35.038Z,25.74
2019-04-25T11:19:06.786Z,25.85
2019-04-25T11:21:38.581Z,25.94
2019-04-25T11:24:10.180Z,26.05
2019-04-25T11:26:42.827Z,26.07
2019-04-25T11:29:15.285Z,25.92
2019-04-25T11:31:48.951Z,25.93
2019-04-25T11:34:20.826Z,26.02
2019-04-25T11:36:52.412Z,26.00
2019-04-25T11:39:54.578Z,26.00
2019-04-25T11:42:26.637Z,25.94
2019-04-25T11:44:59.239Z,26.00
2019-04-25T11:47:31.033Z,25.98
2019-04-25T11:50:03.945Z,25.86
2019-04-25T11:52:35.647Z,25.84
2019-04-25T11:55:07.889Z,25.88
2019-04-25T11:57:39.570Z,25.99
2019-04-25T12:00:21.504Z,26.06
2019-04-25T12:02:45.426Z,26.14
2019-04-25T12:05:17.583Z,26.11
2019-04-25T12:07:50.037Z,26.14
2019-04-25T12:10:24.018Z,26.05
2019-04-25T12:12:55.839Z,26.05
2019-04-25T12:15:27.736Z,26.17
2019-04-25T12:17:59.330Z,26.24
2019-04-25T12:20:30.896Z,26.26
2019-04-25T12:23:08.064Z,26.36
2019-04-25T12:25:35.816Z,26.36
2019-04-25T12:28:07.385Z,26.26
2019-04-25T12:30:40.394Z,26.28
2019-04-25T12:33:20.322Z,26.27
2019-04-25T12:35:45.558Z,26.21
2019-04-25T12:38:17.154Z,26.10
2019-04-25T12:40:50.005Z,26.16
2019-04-25T12:43:23.996Z,26.19
2019-04-25T12:46:19.944Z,26.06
2019-04-25T12:48:51.750Z,26.06
2019-04-25T12:51:23.430Z,26.13
2019-04-25T12:53:56.049Z,26.20
2019-04-25T12:56:28.002Z,26.19
2019-04-25T12:59:01.342Z,26.24
2019-04-25T13:01:33.387Z,26.30
2019-04-25T13:04:06.322Z,26.33
2019-04-25T13:06:39.014Z,26.35
2019-04-25T13:09:13.251Z,26.45
2019-04-25T13:11:44.959Z,26.56
2019-04-25T13:14:17.524Z,26.57
2019-04-25T13:16:49.283Z,26.49
2019-04-25T13:19:24.159Z,26.41
2019-04-25T13:21:54.486Z,26.24
2019-04-25T13:24:27.481Z,26.14
2019-04-25T13:27:06.041Z,26.12
2019-04-25T13:29:57.137Z,26.11
2019-04-25T13:32:50.727Z,26.13
2019-04-25T13:35:26.748Z,26.04
2019-04-25T13:37:59.314Z,25.98
2019-04-25T13:40:31.027Z,26.00
2019-04-25T13:43:03.453Z,25.96
2019-04-25T13:45:35.963Z,25.98
2019-04-25T13:48:08.789Z,25.98
2019-04-25T13:50:40.390Z,25.85
2019-04-25T13:53:13.260Z,25.76
2019-04-25T13:55:44.956Z,25.76
2019-04-25T13:58:16.610Z,25.78
2019-04-25T14:00:49.610Z,25.81
2019-04-25T14:03:21.804Z,25.85
2019-04-25T14:05:53.949Z,25.88
2019-04-25T14:08:25.743Z,25.86
2019-04-25T14:10:57.328Z,25.74
2019-04-25T14:13:29.851Z,25.65
2019-04-25T14:16:30.054Z,25.63
2019-04-25T14:19:15.140Z,25.64
2019-04-25T14:21:47.351Z,25.69
2019-04-25T14:24:20.642Z,25.71
2019-04-25T14:26:52.244Z,25.69
2019-04-25T14:29:23.884Z,25.70
2019-04-25T14:31:55.457Z,25.69
2019-04-25T14:34:27.851Z,25.72
2019-04-25T14:36:59.536Z,25.73
2019-04-25T14:39:31.119Z,25.75
2019-04-25T14:42:02.799Z,25.76
2019-04-25T14:44:34.442Z,25.85
2019-04-25T14:47:08.927Z,25.94
2019-04-25T14:49:40.539Z,26.00
2019-04-25T14:52:12.165Z,26.07
2019-04-25T14:55:13.649Z,26.16
2019-04-25T14:57:45.231Z,26.22
2019-04-25T15:00:28.247Z,26.26
2019-04-25T15:02:59.995Z,26.28
2019-04-25T15:05:31.574Z,26.27
2019-04-25T15:08:03.260Z,26.30
2019-04-25T15:10:35.532Z,26.32
2019-04-25T15:13:08.928Z,26.35
2019-04-25T15:15:40.566Z,26.31
2019-04-25T15:18:12.194Z,26.23
2019-04-25T15:20:44.063Z,26.12
2019-04-25T15:23:15.689Z,26.01
2019-04-25T15:25:47.285Z,25.94
2019-04-25T15:28:18.892Z,25.80
2019-04-25T15:30:51.169Z,25.70
2019-04-25T15:33:24.111Z,25.70
2019-04-25T15:36:33.562Z,25.66
2019-04-25T15:39:41.053Z,25.63
2019-04-25T15:42:31.947Z,25.64
2019-04-25T15:45:22.473Z,25.67
2019-04-25T15:47:54.778Z,25.67
2019-04-25T15:50:26.478Z,25.67
2019-04-25T15:52:58.089Z,25.67
2019-04-25T15:55:29.685Z,25.67
2019-04-25T15:58:01.245Z,25.71
2019-04-25T16:00:35.575Z,25.67
2019-04-25T16:03:08.037Z,25.64
2019-04-25T16:05:39.660Z,25.62
2019-04-25T16:08:11.500Z,25.58
2019-04-25T16:10:43.101Z,25.56
2019-04-25T16:13:14.745Z,25.51
2019-04-25T16:15:46.430Z,25.49
2019-04-25T16:18:18.037Z,25.44
2019-04-25T16:21:00.943Z,25.44
2019-04-25T16:23:34.396Z,25.40
2019-04-25T16:26:06.089Z,25.35
2019-04-25T16:28:37.759Z,25.30
2019-04-25T16:31:11.023Z,25.26
2019-04-25T16:33:42.628Z,25.24
2019-04-25T16:36:14.320Z,25.22
2019-04-25T16:38:45.925Z,25.21
2019-04-25T16:41:17.884Z,25.14
2019-04-25T16:43:53.213Z,25.14
2019-04-25T16:46:25.693Z,25.12
2019-04-25T16:48:57.358Z,25.12
2019-04-25T16:51:29.327Z,25.12
2019-04-25T16:54:00.923Z,25.19
2019-04-25T16:56:32.726Z,25.23
2019-04-25T16:59:04.271Z,25.26
2019-04-25T17:01:36.209Z,25.26
2019-04-25T17:04:07.955Z,25.26
2019-04-25T17:06:39.753Z,25.25
2019-04-25T17:09:12.415Z,25.24
2019-04-25T17:11:44.042Z,25.21
2019-04-25T17:14:22.213Z,25.15
2019-04-25T17:17:15.482Z,25.13
2019-04-25T17:19:54.729Z,25.11
2019-04-25T17:22:37.755Z,25.05
2019-04-25T17:25:12.395Z,25.00
2019-04-25T17:27:44.121Z,24.93
2019-04-25T17:30:16.414Z,24.88
2019-04-25T17:33:01.459Z,24.81
2019-04-25T17:35:56.528Z,24.75
2019-04-25T17:38:47.018Z,24.71
2019-04-25T17:41:18.627Z,24.65
2019-04-25T17:43:50.370Z,24.55
2019-04-25T17:46:23.589Z,24.49
2019-04-25T17:48:55.188Z,24.38
2019-04-25T17:51:26.818Z,24.30
2019-04-25T17:53:58.407Z,24.18
2019-04-25T17:56:30.004Z,24.12
2019-04-25T17:59:01.884Z,24.05
2019-04-25T18:01:34.073Z,23.97
2019-04-25T18:04:06.327Z,23.88
2019-04-25T18:06:40.018Z,23.83
2019-04-25T18:09:11.858Z,23.76
2019-04-25T18:11:44.062Z,23.72
2019-04-25T18:14:15.690Z,23.65
2019-04-25T18:16:48.639Z,23.56
2019-04-25T18:19:44.907Z,23.49
2019-04-25T18:22:41.370Z,23.40
2019-04-25T18:25:30.650Z,23.36
2019-04-25T18:28:30.634Z,23.22
2019-04-25T18:31:03.482Z,23.02
2019-04-25T18:33:37.242Z,22.78
2019-04-25T18:36:35.200Z,22.67
2019-04-25T18:39:31.882Z,22.43
2019-04-25T18:42:31.460Z,22.27
2019-04-25T18:45:06.109Z,22.15
2019-04-25T18:47:38.749Z,21.97
2019-04-25T18:50:12.418Z,21.82
2019-04-25T18:52:59.599Z,21.69
2019-04-25T18:55:40.921Z,21.62
2019-04-25T18:58:20.785Z,21.54
2019-04-25T19:01:06.616Z,21.37
2019-04-25T19:03:57.209Z,21.26
2019-04-25T19:06:29.116Z,21.06
2019-04-25T19:09:00.735Z,20.85
2019-04-25T19:11:33.971Z,20.57
2019-04-25T19:14:05.762Z,20.45
2019-04-25T19:16:37.592Z,20.31
2019-04-25T19:19:09.232Z,20.12
2019-04-25T19:21:41.619Z,20.03
2019-04-25T19:24:13.543Z,19.90
2019-04-25T19:26:46.111Z,19.80
2019-04-25T19:29:17.791Z,19.64
2019-04-25T19:31:51.916Z,19.52
2019-04-25T19:34:22.770Z,19.37
2019-04-25T19:36:54.434Z,19.30
2019-04-25T19:39:27.697Z,19.29
2019-04-25T19:42:16.963Z,19.12
2019-04-25T19:44:58.201Z,18.95
2019-04-25T19:47:29.857Z,18.86
2019-04-25T19:50:01.438Z,18.76
2019-04-25T19:52:33.414Z,18.66
2019-04-25T19:55:05.484Z,18.59
2019-04-25T19:57:37.128Z,18.55
2019-04-25T20:00:09.224Z,18.48
2019-04-25T20:02:53.022Z,18.39
2019-04-25T20:05:33.983Z,18.36
2019-04-25T20:08:20.970Z,18.38
2019-04-25T20:10:58.811Z,18.32
2019-04-25T20:13:30.403Z,18.22
2019-04-25T20:16:01.993Z,18.20
2019-04-25T20:18:34.700Z,18.07
2019-04-25T20:21:06.407Z,17.85
2019-04-25T20:23:38.032Z,17.75
2019-04-25T20:26:09.595Z,17.56
2019-04-25T20:28:41.252Z,17.44
2019-04-25T20:31:12.885Z,17.32
2019-04-25T20:33:45.464Z,17.23
2019-04-25T20:36:18.300Z,17.12
2019-04-25T20:38:49.917Z,17.00
2019-04-25T20:41:21.540Z,16.94
2019-04-25T20:43:53.167Z,16.83
2019-04-25T20:46:24.790Z,16.75
2019-04-25T20:48:56.480Z,16.67
2019-04-25T20:51:28.005Z,16.66
2019-04-25T20:53:59.617Z,16.60
2019-04-25T20:56:31.215Z,16.46
2019-04-25T20:59:02.869Z,16.43
2019-04-25T21:01:34.504Z,16.44
2019-04-25T21:04:13.321Z,16.46
2019-04-25T21:06:41.337Z,16.38
2019-04-25T21:09:12.951Z,16.36
2019-04-25T21:11:46.180Z,16.31
2019-04-25T21:14:39.466Z,16.27
2019-04-25T21:17:20.547Z,16.28
2019-04-25T21:19:52.831Z,16.21
2019-04-25T21:22:24.526Z,16.23
2019-04-25T21:24:56.137Z,16.08
2019-04-25T21:27:28.696Z,16.03
2019-04-25T21:30:00.302Z,15.88
2019-04-25T21:32:52.129Z,15.80
2019-04-25T21:35:25.036Z,15.69
2019-04-25T21:37:57.468Z,15.61
2019-04-25T21:41:03.173Z,15.59
2019-04-25T21:43:39.219Z,15.52
2019-04-25T21:46:11.024Z,15.46
2019-04-25T21:48:42.852Z,15.44
2019-04-25T21:51:32.943Z,15.42
2019-04-25T21:54:06.327Z,15.39
2019-04-25T21:56:38.120Z,15.38
2019-04-25T21:59:09.996Z,15.37
2019-04-25T22:01:42.835Z,15.31
2019-04-25T22:04:14.417Z,15.27
2019-04-25T22:06:46.296Z,15.25
2019-04-25T22:09:19.383Z,15.20
2019-04-25T22:11:51.417Z,15.14
2019-04-25T22:14:23.462Z,15.12
2019-04-25T22:16:55.494Z,15.06
2019-04-25T22:19:28.168Z,14.98
2019-04-25T22:22:00.599Z,14.93
2019-04-25T22:24:32.203Z,14.87
2019-04-25T22:27:07.360Z,14.74
2019-04-25T22:29:42.356Z,14.63
2019-04-25T22:32:30.586Z,14.57
2019-04-25T22:35:16.485Z,14.55
2019-04-25T22:37:48.112Z,14.54
2019-04-25T22:40:19.732Z,14.53
2019-04-25T22:42:51.343Z,14.41
2019-04-25T22:45:23.057Z,14.32
2019-04-25T22:47:54.920Z,14.30
2019-04-25T22:50:26.821Z,14.23
2019-04-25T22:52:58.407Z,14.18
2019-04-25T22:55:30.002Z,14.11
2019-04-25T22:58:02.770Z,14.09
2019-04-25T23:00:37.223Z,14.03
2019-04-25T23:03:18.437Z,14.01
2019-04-25T23:05:54.932Z,13.92
2019-04-25T23:08:26.826Z,13.79
2019-04-25T23:10:58.404Z,13.67
2019-04-25T23:13:30.042Z,13.59
2019-04-25T23:16:02.497Z,13.66
2019-04-25T23:18:35.197Z,13.64
2019-04-25T23:21:06.854Z,13.59
2019-04-25T23:23:38.452Z,13.48
2019-04-25T23:26:44.071Z,13.34
2019-04-25T23:29:16.711Z,13.25
2019-04-25T23:31:48.380Z,13.19
2019-04-25T23:34:20.142Z,13.14
2019-04-25T23:36:51.715Z,12.99
2019-04-25T23:39:24.198Z,12.94
2019-04-25T23:41:55.768Z,12.94
2019-04-25T23:44:27.418Z,12.93
2019-04-25T23:46:59.239Z,12.81
2019-04-25T23:49:30.923Z,12.69
2019-04-25T23:52:02.599Z,12.66
2019-04-25T23:54:34.198Z,12.58
2019-04-25T23:57:07.029Z,12.52
2019-04-25T23:59:39.379Z,12.57
